Time;durP1;ratioP1;P1;durP2;ratioP2;P2;SDS_P1;SDS_P2;PMS_P1;PMS_P2;Temp;Humidity;BMP_temperature;BMP_pressure;BME280_temperature;BME280_humidity;BME280_pressure;Samples;Min_cycle;Max_cycle;Signal;HPM_P1;HPM_P2
2022/10/22 00:01:23;;;;;;;22.40;13.07;;;12.50;99.90;;;;;;5011694;28;20052;-80
2022/10/22 00:03:49;;;;;;;23.50;14.55;;;12.40;99.90;;;;;;5013193;28;20088;-82
2022/10/22 00:06:15;;;;;;;28.30;13.50;;;12.40;99.90;;;;;;5015150;28;20038;-79
2022/10/22 00:08:41;;;;;;;25.05;10.77;;;12.30;99.90;;;;;;5012252;28;20058;-80
2022/10/22 00:11:12;;;;;;;19.73;11.48;;;12.30;99.90;;;;;;5010929;28;20050;-81
2022/10/22 00:13:38;;;;;;;24.42;11.43;;;12.20;99.90;;;;;;4993311;28;20189;-80
2022/10/22 00:16:04;;;;;;;23.98;12.70;;;12.20;99.90;;;;;;5009717;28;20505;-80
2022/10/22 00:18:30;;;;;;;22.75;12.07;;;12.20;99.90;;;;;;4991017;28;20147;-80
2022/10/22 00:20:56;;;;;;;21.52;11.15;;;12.20;99.90;;;;;;4991164;28;20069;-80
2022/10/22 00:23:22;;;;;;;18.17;10.88;;;12.10;99.90;;;;;;4991415;28;20081;-80
2022/10/22 00:25:47;;;;;;;19.83;11.20;;;12.10;99.90;;;;;;4973483;28;20061;-81
2022/10/22 00:28:14;;;;;;;19.65;12.20;;;12.10;99.90;;;;;;4991119;28;20054;-80
2022/10/22 00:30:40;;;;;;;22.83;12.10;;;12.10;99.90;;;;;;4992441;28;20065;-79
2022/10/22 00:33:06;;;;;;;19.15;12.15;;;12.10;99.90;;;;;;4979665;28;20056;-84
2022/10/22 00:35:32;;;;;;;21.80;11.00;;;12.10;99.90;;;;;;4994717;28;20129;-82
2022/10/22 00:37:58;;;;;;;21.45;11.32;;;12.00;99.90;;;;;;4995429;28;20058;-81
2022/10/22 00:40:24;;;;;;;21.50;13.40;;;12.00;99.90;;;;;;4994825;28;20100;-80
2022/10/22 00:42:50;;;;;;;22.90;12.13;;;12.00;99.90;;;;;;4994728;28;20050;-80
2022/10/22 00:45:26;;;;;;;31.17;14.10;;;12.00;99.90;;;;;;4977352;28;20417;-82
2022/10/22 00:48:09;;;;;;;19.30;11.60;;;11.90;99.90;;;;;;4976905;28;20061;-80
2022/10/22 00:50:34;;;;;;;26.70;13.48;;;11.90;99.90;;;;;;4994418;28;20137;-82
2022/10/22 00:53:03;;;;;;;19.60;12.07;;;11.90;99.90;;;;;;4994092;28;20129;-80
2022/10/22 00:55:31;;;;;;;16.30;10.27;;;11.90;99.90;;;;;;4994519;28;20441;-82
2022/10/22 00:57:57;;;;;;;22.77;12.52;;;11.90;99.90;;;;;;4978454;28;20065;-82
2022/10/22 01:00:24;;;;;;;17.70;10.85;;;12.00;99.90;;;;;;4976971;28;20057;-80
2022/10/22 01:02:52;;;;;;;23.90;12.25;;;11.90;99.90;;;;;;4976968;28;20148;-81
2022/10/22 01:05:18;;;;;;;25.33;13.23;;;12.00;99.90;;;;;;4960501;28;20050;-83
2022/10/22 01:07:48;;;;;;;23.90;12.93;;;11.90;99.90;;;;;;4994290;28;20050;-81
2022/10/22 01:10:29;;;;;;;23.02;12.38;;;11.90;99.90;;;;;;4976685;28;20056;-81
2022/10/22 01:13:20;;;;;;;21.75;12.90;;;11.80;99.90;;;;;;4994073;28;20556;-81
2022/10/22 01:16:02;;;;;;;25.45;15.05;;;11.80;99.90;;;;;;4995082;28;20572;-79
2022/10/22 01:19:07;;;;;;;27.50;13.57;;;11.80;99.90;;;;;;4979518;28;20058;-83
2022/10/22 01:21:38;;;;;;;25.58;14.88;;;11.80;99.90;;;;;;4993842;28;20058;-79
2022/10/22 01:24:14;;;;;;;27.15;13.50;;;11.70;99.90;;;;;;4993816;28;20086;-81
2022/10/22 01:26:46;;;;;;;19.83;12.43;;;11.70;99.90;;;;;;4994144;28;20039;-81
2022/10/22 01:29:21;;;;;;;23.58;12.82;;;11.70;99.90;;;;;;4994739;28;20142;-81
2022/10/22 01:32:03;;;;;;;26.77;13.38;;;11.70;99.90;;;;;;4976493;28;20113;-79
2022/10/22 01:34:30;;;;;;;23.38;14.48;;;11.70;99.90;;;;;;4976494;28;20109;-81
2022/10/22 01:36:58;;;;;;;27.83;15.73;;;11.70;99.90;;;;;;4993528;28;20146;-81
2022/10/22 01:39:26;;;;;;;30.63;15.65;;;11.70;99.90;;;;;;4993909;28;20406;-80
2022/10/22 01:41:54;;;;;;;23.70;13.93;;;11.70;99.90;;;;;;4994055;28;20460;-76
2022/10/22 01:44:33;;;;;;;38.22;16.38;;;11.70;99.90;;;;;;4993456;28;20178;-80
2022/10/22 01:47:11;;;;;;;26.58;15.32;;;11.70;99.90;;;;;;4995475;28;20512;-79
2022/10/22 01:49:48;;;;;;;30.35;16.08;;;11.70;99.90;;;;;;4981846;28;20058;-82
2022/10/22 01:52:44;;;;;;;23.98;14.48;;;11.70;99.90;;;;;;5001252;28;20077;-81
2022/10/22 01:55:36;;;;;;;26.90;15.50;;;11.70;99.90;;;;;;4997728;28;20061;-82
2022/10/22 01:58:31;;;;;;;30.17;15.50;;;11.80;99.90;;;;;;4991199;28;20050;-84
2022/10/22 02:01:23;;;;;;;22.60;14.02;;;11.80;99.90;;;;;;4978637;28;20081;-81
2022/10/22 02:04:21;;;;;;;22.08;12.73;;;11.80;99.90;;;;;;4997077;28;20089;-80
2022/10/22 02:06:50;;;;;;;24.25;14.05;;;11.70;99.90;;;;;;4976597;28;20057;-83
2022/10/22 02:09:19;;;;;;;27.75;15.15;;;11.80;99.90;;;;;;4976220;28;20553;-80
2022/10/22 02:11:46;;;;;;;28.08;15.57;;;11.80;99.90;;;;;;4975878;28;20129;-81
2022/10/22 02:14:14;;;;;;;20.58;13.32;;;11.80;99.90;;;;;;4993686;28;20046;-83
2022/10/22 02:16:43;;;;;;;25.98;14.77;;;11.80;99.90;;;;;;4978132;28;20050;-79
2022/10/22 02:19:23;;;;;;;22.80;14.15;;;11.80;99.90;;;;;;4978707;28;20062;-80
2022/10/22 02:21:49;;;;;;;27.05;14.73;;;11.80;99.90;;;;;;5000480;28;20046;-83
2022/10/22 02:24:15;;;;;;;22.90;14.45;;;11.80;99.90;;;;;;4981937;28;20506;-84
2022/10/22 02:27:05;;;;;;;25.23;14.30;;;11.90;99.90;;;;;;4994035;28;20667;-82
2022/10/22 02:29:42;;;;;;;26.02;14.60;;;11.90;99.90;;;;;;4993443;28;20132;-81
2022/10/22 02:32:13;;;;;;;25.73;15.30;;;11.90;99.90;;;;;;4992901;28;20393;-82
2022/10/22 02:34:40;;;;;;;24.30;14.40;;;11.90;99.90;;;;;;4992585;28;20057;-82
2022/10/22 02:37:07;;;;;;;29.13;13.50;;;11.90;99.90;;;;;;4992310;28;20058;-83
2022/10/22 02:39:34;;;;;;;24.27;13.52;;;11.90;99.90;;;;;;4993168;28;20054;-80
2022/10/22 02:42:01;;;;;;;22.80;13.30;;;11.90;99.90;;;;;;4992493;28;20051;-83
2022/10/22 02:44:27;;;;;;;25.52;13.55;;;11.90;99.90;;;;;;4992796;28;20055;-79
2022/10/22 02:46:53;;;;;;;22.55;13.48;;;12.00;99.90;;;;;;4992794;28;20066;-80
2022/10/22 02:49:19;;;;;;;27.33;15.30;;;12.00;99.90;;;;;;4995633;28;20112;-82
2022/10/22 02:51:45;;;;;;;26.27;15.02;;;12.00;99.90;;;;;;4993152;28;20054;-84
2022/10/22 02:54:11;;;;;;;24.73;13.40;;;12.10;99.90;;;;;;4992385;28;20605;-83
2022/10/22 02:56:37;;;;;;;28.83;15.23;;;12.10;99.90;;;;;;4974340;28;20096;-84
2022/10/22 02:59:03;;;;;;;24.85;13.57;;;12.10;99.90;;;;;;4992471;28;20474;-80
2022/10/22 03:01:28;;;;;;;22.00;13.13;;;12.10;99.90;;;;;;4992138;28;20403;-83
2022/10/22 03:03:54;;;;;;;30.58;14.93;;;12.10;99.90;;;;;;4991960;28;20105;-83
2022/10/22 03:06:20;;;;;;;26.13;13.70;;;12.10;99.90;;;;;;4991804;28;20053;-84
2022/10/22 03:08:46;;;;;;;21.15;12.55;;;12.20;99.90;;;;;;4974305;28;20074;-81
2022/10/22 03:11:12;;;;;;;24.92;13.52;;;12.20;99.90;;;;;;4992190;28;20170;-82
2022/10/22 03:13:38;;;;;;;26.35;13.98;;;12.20;99.90;;;;;;4992001;28;20054;-79
2022/10/22 03:16:04;;;;;;;28.15;13.30;;;12.20;99.90;;;;;;4976480;28;20112;-80
2022/10/22 03:18:30;;;;;;;22.23;13.85;;;12.20;99.90;;;;;;4974670;28;20053;-80
2022/10/22 03:21:17;;;;;;;19.80;12.65;;;12.30;99.90;;;;;;4991825;28;20375;-80
2022/10/22 03:23:43;;;;;;;20.95;12.02;;;12.30;99.90;;;;;;4991948;28;20085;-79
2022/10/22 03:26:11;;;;;;;21.13;12.35;;;12.30;99.90;;;;;;4974661;28;20089;-79
2022/10/22 03:28:39;;;;;;;23.92;12.23;;;12.30;99.90;;;;;;4992236;28;20053;-80
2022/10/22 03:31:05;;;;;;;22.67;13.32;;;12.30;99.90;;;;;;4991615;28;20086;-79
2022/10/22 03:33:31;;;;;;;32.70;14.00;;;12.30;99.90;;;;;;4974343;28;20062;-79
2022/10/22 03:35:59;;;;;;;18.85;11.43;;;12.30;99.90;;;;;;4974160;28;20057;-80
2022/10/22 03:38:25;;;;;;;22.65;12.52;;;12.30;99.90;;;;;;4957459;28;20050;-79
2022/10/22 03:40:51;;;;;;;23.00;12.25;;;12.30;99.90;;;;;;4991726;28;20050;-83
2022/10/22 03:43:17;;;;;;;23.20;11.55;;;12.40;99.90;;;;;;4991755;28;20137;-79
2022/10/22 03:45:43;;;;;;;22.98;11.65;;;12.30;99.90;;;;;;4992998;28;20050;-79
2022/10/22 03:48:09;;;;;;;21.15;11.82;;;12.30;99.90;;;;;;4978696;28;20101;-80
2022/10/22 03:50:35;;;;;;;24.05;11.35;;;12.30;99.90;;;;;;4975019;28;20057;-80
2022/10/22 03:53:01;;;;;;;18.83;10.93;;;12.30;99.90;;;;;;4974242;28;20194;-81
2022/10/22 03:55:27;;;;;;;21.20;11.13;;;12.30;99.90;;;;;;4991208;28;20414;-81
2022/10/22 03:57:53;;;;;;;21.25;11.95;;;12.30;99.90;;;;;;4991658;28;20054;-80
2022/10/22 04:00:19;;;;;;;22.77;11.80;;;12.30;99.90;;;;;;4991348;28;20050;-80
2022/10/22 04:02:45;;;;;;;18.15;10.85;;;12.30;99.90;;;;;;4991456;28;20105;-80
2022/10/22 04:05:10;;;;;;;23.95;11.20;;;12.30;99.90;;;;;;4974191;28;20401;-81
2022/10/22 04:07:36;;;;;;;16.73;10.00;;;12.30;99.90;;;;;;4959951;28;20595;-80
2022/10/22 04:10:03;;;;;;;19.88;10.15;;;12.30;99.90;;;;;;4995927;28;20047;-81
2022/10/22 04:12:29;;;;;;;18.52;10.93;;;12.30;99.90;;;;;;4998157;28;20403;-81
2022/10/22 04:14:54;;;;;;;25.20;11.27;;;12.30;99.90;;;;;;4994766;28;20065;-83
2022/10/22 04:17:21;;;;;;;20.17;11.40;;;12.20;99.90;;;;;;4977112;28;20509;-82
2022/10/22 04:19:46;;;;;;;19.27;10.68;;;12.20;99.90;;;;;;4994984;28;20124;-82
2022/10/22 04:22:12;;;;;;;16.90;10.55;;;12.20;99.90;;;;;;4994145;28;20058;-85
2022/10/22 04:24:38;;;;;;;21.30;10.57;;;12.20;99.90;;;;;;4994633;28;20046;-85
2022/10/22 04:27:04;;;;;;;20.08;10.00;;;12.20;99.90;;;;;;4994704;28;20046;-81
2022/10/22 04:29:30;;;;;;;22.08;10.98;;;12.20;99.90;;;;;;4995497;28;20133;-78
2022/10/22 04:31:56;;;;;;;16.35;10.07;;;12.20;99.90;;;;;;4995546;28;20094;-80
2022/10/22 04:34:21;;;;;;;19.02;9.85;;;12.20;99.90;;;;;;4979025;28;20486;-79
2022/10/22 04:36:47;;;;;;;21.35;10.13;;;12.20;99.90;;;;;;4979142;28;20089;-83
2022/10/22 04:39:13;;;;;;;27.63;12.05;;;12.10;99.90;;;;;;4979100;28;20053;-82
2022/10/22 04:41:39;;;;;;;26.08;10.15;;;12.10;99.90;;;;;;4961345;28;20506;-82
2022/10/22 04:44:06;;;;;;;16.70;9.88;;;12.10;99.90;;;;;;4961559;28;20054;-82
2022/10/22 04:46:34;;;;;;;18.27;9.60;;;12.10;99.90;;;;;;4995432;28;20100;-83
2022/10/22 04:49:02;;;;;;;21.70;9.93;;;12.10;99.90;;;;;;4944898;28;20057;-83
2022/10/22 04:51:28;;;;;;;20.83;10.75;;;12.10;99.90;;;;;;4993744;28;20061;-81
2022/10/22 04:53:54;;;;;;;20.50;10.10;;;12.10;99.90;;;;;;4993972;28;20054;-84
2022/10/22 04:56:23;;;;;;;16.83;9.55;;;12.10;99.90;;;;;;4995564;28;20054;-83
2022/10/22 04:59:01;;;;;;;20.90;10.30;;;12.10;99.90;;;;;;4993568;28;20223;-84
2022/10/22 05:01:29;;;;;;;19.50;9.57;;;12.10;99.90;;;;;;4976934;28;20064;-83
2022/10/22 05:03:59;;;;;;;18.83;9.50;;;12.10;99.90;;;;;;4993767;28;20160;-80
2022/10/22 05:06:26;;;;;;;19.38;9.50;;;12.10;99.90;;;;;;4976391;28;20061;-82
2022/10/22 05:08:54;;;;;;;27.33;9.23;;;12.20;99.90;;;;;;4975884;28;20521;-80
2022/10/22 05:11:23;;;;;;;19.45;10.43;;;12.20;99.90;;;;;;4976412;28;20065;-81
2022/10/22 05:13:49;;;;;;;22.88;10.02;;;12.20;99.90;;;;;;4995705;28;20116;-82
2022/10/22 05:16:15;;;;;;;21.98;10.27;;;12.10;99.90;;;;;;4975998;28;20490;-81
2022/10/22 05:18:43;;;;;;;20.20;9.90;;;12.20;99.90;;;;;;4975072;28;20108;-81
2022/10/22 05:21:16;;;;;;;21.42;10.18;;;12.20;99.90;;;;;;4972284;28;20501;-79
2022/10/22 05:23:43;;;;;;;19.23;9.32;;;12.20;99.90;;;;;;4993020;28;20129;-77
2022/10/22 05:26:10;;;;;;;20.63;10.77;;;12.20;99.90;;;;;;4975544;28;20054;-83
2022/10/22 05:28:37;;;;;;;18.80;9.35;;;12.20;99.90;;;;;;4975322;28;20588;-84
2022/10/22 05:31:04;;;;;;;17.20;10.00;;;12.10;99.90;;;;;;4976092;28;20046;-83
2022/10/22 05:33:31;;;;;;;22.83;9.15;;;12.20;99.90;;;;;;4975951;28;20396;-80
2022/10/22 05:35:58;;;;;;;20.00;10.02;;;12.20;99.90;;;;;;4997049;28;20466;-79
2022/10/22 05:38:24;;;;;;;20.70;9.52;;;12.20;99.90;;;;;;4996880;28;20056;-80
2022/10/22 05:41:11;;;;;;;22.38;9.40;;;12.20;99.90;;;;;;4992780;28;20134;-81
2022/10/22 05:43:37;;;;;;;15.30;9.05;;;12.20;99.90;;;;;;4974970;28;20058;-79
2022/10/22 05:46:08;;;;;;;21.10;9.68;;;12.20;99.90;;;;;;4975373;28;20498;-80
2022/10/22 05:48:35;;;;;;;18.58;8.80;;;12.20;99.90;;;;;;4968107;28;20105;-82
2022/10/22 05:51:04;;;;;;;20.85;9.35;;;12.20;99.90;;;;;;4970302;28;20074;-79
2022/10/22 05:53:36;;;;;;;20.33;9.30;;;12.20;99.90;;;;;;4993408;28;20060;-84
2022/10/22 05:56:05;;;;;;;18.83;8.98;;;12.20;99.90;;;;;;4992939;28;20053;-83
2022/10/22 05:58:31;;;;;;;19.83;9.80;;;12.30;99.90;;;;;;4992733;28;20062;-80
2022/10/22 06:01:05;;;;;;;19.25;9.77;;;12.30;99.90;;;;;;4994722;28;20461;-78
2022/10/22 06:03:32;;;;;;;19.50;8.73;;;12.30;99.90;;;;;;4997322;28;20109;-79
2022/10/22 06:06:03;;;;;;;18.55;9.90;;;12.30;99.90;;;;;;4994893;28;20290;-82
2022/10/22 06:08:29;;;;;;;15.27;9.88;;;12.30;99.90;;;;;;4995753;28;20047;-83
2022/10/22 06:10:56;;;;;;;18.75;9.00;;;12.30;99.90;;;;;;4994870;28;20058;-83
2022/10/22 06:13:22;;;;;;;16.88;8.85;;;12.30;99.90;;;;;;4975412;28;20054;-80
2022/10/22 06:15:49;;;;;;;23.30;9.80;;;12.30;99.90;;;;;;4990394;28;20042;-84
2022/10/22 06:18:21;;;;;;;21.33;9.35;;;12.30;99.90;;;;;;4992413;28;20061;-84
2022/10/22 06:20:47;;;;;;;19.88;10.30;;;12.30;99.90;;;;;;4993134;28;20529;-83
2022/10/22 06:23:14;;;;;;;16.45;10.07;;;12.30;99.90;;;;;;4977185;28;20059;-80
2022/10/22 06:25:40;;;;;;;18.45;10.65;;;12.30;99.90;;;;;;4974567;28;20073;-83
2022/10/22 06:28:06;;;;;;;23.60;9.68;;;12.30;99.90;;;;;;4975337;28;20413;-83
2022/10/22 06:30:32;;;;;;;21.77;9.35;;;12.30;99.90;;;;;;4991979;28;20062;-80
2022/10/22 06:32:58;;;;;;;25.02;10.73;;;12.30;99.90;;;;;;4979490;28;20058;-80
2022/10/22 06:35:24;;;;;;;19.85;10.15;;;12.30;99.90;;;;;;4995678;28;20043;-81
2022/10/22 06:37:50;;;;;;;20.95;10.43;;;12.40;99.90;;;;;;4994132;28;20061;-82
2022/10/22 06:40:17;;;;;;;18.38;10.18;;;12.40;99.90;;;;;;4992582;28;20050;-76
2022/10/22 06:42:43;;;;;;;16.27;9.05;;;12.40;99.90;;;;;;4992102;28;20141;-80
2022/10/22 06:45:09;;;;;;;23.23;10.13;;;12.40;99.90;;;;;;4992338;28;20133;-77
2022/10/22 06:47:35;;;;;;;19.00;10.07;;;12.40;99.90;;;;;;4959613;28;20068;-81
2022/10/22 06:50:01;;;;;;;16.67;10.05;;;12.50;99.90;;;;;;4995049;28;20054;-79
2022/10/22 06:52:27;;;;;;;24.42;9.48;;;12.50;99.90;;;;;;4998164;28;20062;-86
2022/10/22 06:54:53;;;;;;;24.85;11.68;;;12.50;99.90;;;;;;4996098;28;20054;-81
2022/10/22 06:57:19;;;;;;;22.30;9.82;;;12.50;99.90;;;;;;4977063;28;20089;-80
2022/10/22 06:59:45;;;;;;;19.55;9.38;;;12.50;99.90;;;;;;4994557;28;20057;-80
2022/10/22 07:02:11;;;;;;;22.15;10.15;;;12.50;99.90;;;;;;4993586;28;20062;-82
2022/10/22 07:04:36;;;;;;;21.98;9.63;;;12.50;99.90;;;;;;4977498;28;20196;-84
2022/10/22 07:07:02;;;;;;;25.98;10.95;;;12.50;99.90;;;;;;5011679;28;20133;-81
2022/10/22 07:09:28;;;;;;;18.98;8.88;;;12.50;99.90;;;;;;4993661;28;20058;-82
2022/10/22 07:11:54;;;;;;;19.65;9.43;;;12.50;99.90;;;;;;5012132;28;20124;-81
2022/10/22 07:14:20;;;;;;;22.60;9.23;;;12.50;99.90;;;;;;5011936;28;20053;-80
2022/10/22 07:16:46;;;;;;;17.27;9.35;;;12.50;99.90;;;;;;4995866;28;20045;-79
2022/10/22 07:19:12;;;;;;;26.92;9.55;;;12.60;99.90;;;;;;5019628;28;20054;-84
2022/10/22 07:21:38;;;;;;;17.73;9.55;;;12.60;99.90;;;;;;4993467;28;20056;-81
2022/10/22 07:24:05;;;;;;;20.20;9.63;;;12.60;99.90;;;;;;4994455;28;20054;-81
2022/10/22 07:26:31;;;;;;;20.88;9.52;;;12.70;99.90;;;;;;4997349;28;20465;-81
2022/10/22 07:29:00;;;;;;;16.40;8.77;;;12.70;99.90;;;;;;5011557;28;20057;-82
2022/10/22 07:31:27;;;;;;;24.88;9.20;;;12.70;99.90;;;;;;4994987;28;20058;-81
2022/10/22 07:33:53;;;;;;;18.30;8.55;;;12.70;99.90;;;;;;5011898;28;20096;-82
2022/10/22 07:36:19;;;;;;;29.05;10.23;;;12.80;99.90;;;;;;4994784;28;20050;-80
2022/10/22 07:38:52;;;;;;;20.70;10.20;;;12.80;99.90;;;;;;5000930;28;20053;-82
2022/10/22 07:41:18;;;;;;;17.60;8.93;;;12.80;99.90;;;;;;4993761;28;20204;-79
2022/10/22 07:43:46;;;;;;;14.15;8.23;;;12.90;99.90;;;;;;5011027;28;20054;-83
2022/10/22 07:46:12;;;;;;;15.93;8.32;;;12.90;99.90;;;;;;4992930;28;20058;-81
2022/10/22 07:48:41;;;;;;;16.67;9.30;;;12.90;99.90;;;;;;4992819;28;20510;-82
2022/10/22 07:51:07;;;;;;;18.85;9.88;;;13.00;99.90;;;;;;5010387;28;20058;-81
2022/10/22 07:53:33;;;;;;;17.23;7.82;;;13.00;99.90;;;;;;4992475;28;20062;-82
2022/10/22 07:55:59;;;;;;;17.13;9.10;;;13.00;99.90;;;;;;5016560;28;20142;-81
2022/10/22 07:58:25;;;;;;;15.38;8.00;;;13.10;99.90;;;;;;5011163;28;20128;-80
2022/10/22 08:00:54;;;;;;;21.77;8.90;;;13.10;99.90;;;;;;5010218;28;20402;-79
2022/10/22 08:03:20;;;;;;;16.77;8.27;;;13.10;99.90;;;;;;4960098;28;20068;-83
2022/10/22 08:05:46;;;;;;;17.42;7.60;;;13.20;99.90;;;;;;5010133;28;20112;-83
2022/10/22 08:08:14;;;;;;;20.42;7.68;;;13.20;99.90;;;;;;5010084;28;20042;-83
2022/10/22 08:10:40;;;;;;;17.73;8.45;;;13.30;99.90;;;;;;4993223;28;20054;-81
2022/10/22 08:13:07;;;;;;;12.40;6.53;;;13.30;99.90;;;;;;4974028;28;20446;-84
2022/10/22 08:15:33;;;;;;;22.38;6.90;;;13.40;99.90;;;;;;4959579;28;20062;-82
2022/10/22 08:17:59;;;;;;;16.45;7.30;;;13.50;99.90;;;;;;4985399;28;20070;-81
2022/10/22 08:20:26;;;;;;;14.98;6.15;;;13.50;99.90;;;;;;4973462;28;20098;-81
2022/10/22 08:22:52;;;;;;;14.40;6.57;;;13.60;99.90;;;;;;5003849;28;20057;-82
2022/10/22 08:25:18;;;;;;;13.88;5.78;;;13.60;99.90;;;;;;4973582;28;20054;-83
2022/10/22 08:27:44;;;;;;;19.77;6.57;;;13.70;99.90;;;;;;4994115;28;20057;-84
2022/10/22 08:30:11;;;;;;;13.88;6.43;;;13.80;99.90;;;;;;4989143;28;20054;-80
2022/10/22 08:32:37;;;;;;;12.27;5.75;;;13.90;99.90;;;;;;4991267;28;20113;-83
2022/10/22 08:35:04;;;;;;;13.38;6.78;;;13.90;99.90;;;;;;4973133;28;20050;-80
2022/10/22 08:37:30;;;;;;;21.92;7.25;;;14.00;99.90;;;;;;4988340;28;20525;-81
2022/10/22 08:39:56;;;;;;;20.88;7.15;;;14.00;99.90;;;;;;4973631;28;20042;-81
2022/10/22 08:42:34;;;;;;;17.23;5.30;;;14.10;99.90;;;;;;4977331;28;20050;-87
2022/10/22 08:45:09;;;;;;;22.15;6.65;;;14.20;99.90;;;;;;4992392;28;20573;-81
2022/10/22 08:47:47;;;;;;;15.55;4.97;;;14.20;99.90;;;;;;4973193;28;20108;-84
2022/10/22 08:50:18;;;;;;;16.42;5.95;;;14.30;99.90;;;;;;4989963;28;20060;-84
2022/10/22 08:52:48;;;;;;;13.77;5.07;;;14.40;99.90;;;;;;4991352;28;20054;-78
2022/10/22 08:55:15;;;;;;;15.05;5.78;;;14.50;99.90;;;;;;4996396;28;20101;-78
2022/10/22 08:57:58;;;;;;;16.00;4.70;;;14.50;99.90;;;;;;4977372;28;20065;-80
2022/10/22 09:01:00;;;;;;;14.75;5.40;;;14.60;99.90;;;;;;4994715;28;20117;-79
2022/10/22 09:03:41;;;;;;;16.15;5.38;;;14.70;99.90;;;;;;4993653;28;20058;-79
2022/10/22 09:06:28;;;;;;;15.73;5.10;;;14.80;99.90;;;;;;4994468;28;20073;-82
2022/10/22 09:08:57;;;;;;;18.13;5.38;;;15.00;99.90;;;;;;4994574;28;20057;-80
2022/10/22 09:11:38;;;;;;;11.60;4.40;;;15.10;99.90;;;;;;4994921;28;20046;-83
2022/10/22 09:14:04;;;;;;;14.55;4.65;;;15.20;99.90;;;;;;5001122;28;20050;-80
2022/10/22 09:16:55;;;;;;;16.83;5.13;;;15.40;99.90;;;;;;4994336;28;20091;-89
2022/10/22 09:19:43;;;;;;;16.27;5.07;;;15.50;99.90;;;;;;4976691;28;20058;-82
2022/10/22 09:22:18;;;;;;;14.02;4.65;;;15.70;99.90;;;;;;4981482;28;20132;-83
2022/10/22 09:24:51;;;;;;;15.07;4.40;;;15.80;99.90;;;;;;4969575;28;20156;-84
2022/10/22 09:27:25;;;;;;;10.70;4.75;;;15.80;99.90;;;;;;4986090;28;20110;-82
2022/10/22 09:29:51;;;;;;;16.75;4.00;;;15.90;99.90;;;;;;4969863;28;20047;-77
2022/10/22 09:32:17;;;;;;;12.13;4.03;;;15.80;99.90;;;;;;4986420;28;20064;-83
2022/10/22 09:34:45;;;;;;;16.70;4.80;;;15.90;99.90;;;;;;4987019;28;20046;-80
2022/10/22 09:37:15;;;;;;;10.77;4.25;;;15.90;99.90;;;;;;4974508;28;20522;-82
2022/10/22 09:39:45;;;;;;;13.35;4.00;;;15.80;99.90;;;;;;4976352;28;20051;-80
2022/10/22 09:42:15;;;;;;;12.63;3.95;;;15.90;99.90;;;;;;4975679;28;20050;-88
2022/10/22 09:44:41;;;;;;;13.43;3.90;;;16.00;99.90;;;;;;4959005;28;20130;-78
2022/10/22 09:47:27;;;;;;;9.88;4.13;;;16.00;99.90;;;;;;4980387;28;20494;-81
2022/10/22 09:50:21;;;;;;;14.60;4.28;;;16.10;99.90;;;;;;4963840;28;20051;-76
2022/10/22 09:53:05;;;;;;;18.05;3.65;;;16.10;99.90;;;;;;4981750;28;20054;-81
2022/10/22 09:55:31;;;;;;;16.58;4.32;;;16.10;99.90;;;;;;4964686;28;20089;-80
2022/10/22 09:57:59;;;;;;;12.90;4.18;;;16.10;99.90;;;;;;4979990;28;20058;-87
2022/10/22 10:00:26;;;;;;;12.32;3.72;;;16.10;99.90;;;;;;4979396;28;20050;-77
2022/10/22 10:02:57;;;;;;;14.15;4.85;;;16.10;99.90;;;;;;4980852;28;20079;-78
2022/10/22 10:05:32;;;;;;;15.70;4.10;;;16.10;99.90;;;;;;4959190;28;20570;-79
2022/10/22 10:08:10;;;;;;;12.20;3.95;;;16.00;99.90;;;;;;4960747;28;20131;-78
2022/10/22 10:11:04;;;;;;;11.60;3.05;;;16.00;99.90;;;;;;4958690;28;20509;-82
2022/10/22 10:13:46;;;;;;;18.38;4.20;;;16.10;99.90;;;;;;4980455;28;20047;-78
2022/10/22 10:16:33;;;;;;;29.52;5.32;;;16.20;99.90;;;;;;4975776;28;20054;-81
2022/10/22 10:19:06;;;;;;;10.65;4.25;;;16.10;99.90;;;;;;4975954;28;20167;-78
2022/10/22 10:21:50;;;;;;;13.52;3.88;;;16.20;99.90;;;;;;4960069;28;20055;-81
2022/10/22 10:24:31;;;;;;;12.18;4.00;;;16.20;99.90;;;;;;4957244;28;20490;-77
2022/10/22 10:27:24;;;;;;;12.55;4.15;;;16.10;99.90;;;;;;4961747;28;20058;-78
2022/10/22 10:29:58;;;;;;;14.73;4.22;;;16.10;99.90;;;;;;4961357;28;20053;-78
2022/10/22 10:32:29;;;;;;;11.43;4.30;;;16.00;99.90;;;;;;4985533;28;20177;-84
2022/10/22 10:35:20;;;;;;;16.85;4.90;;;16.00;99.90;;;;;;4972769;28;20050;-81
2022/10/22 10:38:12;;;;;;;13.18;3.78;;;16.00;99.90;;;;;;4950823;28;20054;-84
2022/10/22 10:40:50;;;;;;;17.58;4.85;;;16.10;99.90;;;;;;4964847;28;20450;-78
2022/10/22 10:43:21;;;;;;;14.40;4.50;;;16.10;99.90;;;;;;4983980;28;20137;-79
2022/10/22 10:45:54;;;;;;;11.05;3.90;;;16.20;99.90;;;;;;4982935;28;20049;-79
2022/10/22 10:48:41;;;;;;;16.35;4.13;;;16.20;99.90;;;;;;4984470;28;20050;-78
2022/10/22 10:51:45;;;;;;;13.10;4.75;;;16.40;99.90;;;;;;4965752;28;20054;-75
2022/10/22 10:54:14;;;;;;;14.13;4.43;;;16.60;99.90;;;;;;4991974;28;20046;-76
2022/10/22 10:56:57;;;;;;;10.05;3.72;;;16.90;99.90;;;;;;4972756;28;20046;-82
2022/10/22 10:59:41;;;;;;;17.45;4.03;;;17.10;99.90;;;;;;4985107;28;20042;-80
2022/10/22 11:02:26;;;;;;;12.57;3.30;;;17.30;99.90;;;;;;4966839;28;20129;-79
2022/10/22 11:05:25;;;;;;;12.82;3.40;;;17.40;99.90;;;;;;4983785;28;20089;-81
2022/10/22 11:08:00;;;;;;;11.18;3.15;;;17.60;99.90;;;;;;4982725;28;20174;-79
2022/10/22 11:10:39;;;;;;;11.52;3.53;;;17.50;99.90;;;;;;4999354;28;20076;-81
2022/10/22 11:13:33;;;;;;;9.65;2.88;;;17.40;99.90;;;;;;4996478;28;20049;-83
2022/10/22 11:16:17;;;;;;;11.53;2.60;;;17.40;99.90;;;;;;5007677;28;20042;-79
2022/10/22 11:18:50;;;;;;;10.07;3.40;;;17.40;99.90;;;;;;4965126;28;20051;-81
2022/10/22 11:21:20;;;;;;;11.30;2.80;;;17.20;99.90;;;;;;5002588;28;20065;-81
2022/10/22 11:24:07;;;;;;;10.95;2.72;;;17.20;99.90;;;;;;4992861;28;20057;-79
2022/10/22 11:26:45;;;;;;;7.75;2.95;;;17.10;99.90;;;;;;4980001;28;20089;-76
2022/10/22 11:29:27;;;;;;;7.47;2.55;;;16.90;99.90;;;;;;4992068;28;20050;-77
2022/10/22 11:31:56;;;;;;;10.48;3.47;;;16.80;99.90;;;;;;4992027;28;20137;-83
2022/10/22 11:34:44;;;;;;;9.15;3.15;;;16.70;99.90;;;;;;4992572;28;20096;-85
2022/10/22 11:37:12;;;;;;;9.02;3.30;;;16.60;99.90;;;;;;4975022;28;20076;-79
2022/10/22 11:39:58;;;;;;;11.50;4.05;;;16.40;99.90;;;;;;4994974;28;20046;-84
2022/10/22 11:42:42;;;;;;;14.02;4.35;;;16.20;99.90;;;;;;4956375;28;20057;-81
2022/10/22 11:45:13;;;;;;;12.50;4.57;;;16.10;99.90;;;;;;4972629;28;20051;-83
2022/10/22 11:47:56;;;;;;;12.48;4.20;;;16.00;99.90;;;;;;4955975;28;20102;-80
2022/10/22 11:50:51;;;;;;;13.18;4.85;;;16.20;99.90;;;;;;4975983;28;20133;-79
2022/10/22 11:53:32;;;;;;;10.63;4.45;;;16.30;99.90;;;;;;4971057;28;20165;-81
2022/10/22 11:56:23;;;;;;;10.60;4.45;;;16.30;99.90;;;;;;4991533;28;20100;-80
2022/10/22 11:58:49;;;;;;;12.88;4.60;;;16.40;99.90;;;;;;4992907;28;20050;-79
2022/10/22 12:01:28;;;;;;;13.93;4.93;;;16.50;99.90;;;;;;4997004;28;20062;-79
2022/10/22 12:03:56;;;;;;;9.30;4.32;;;16.50;99.90;;;;;;4964508;28;20561;-79
2022/10/22 12:06:27;;;;;;;10.95;4.20;;;16.60;99.90;;;;;;4964900;28;20050;-79
2022/10/22 12:08:56;;;;;;;13.48;4.38;;;16.80;99.90;;;;;;4981870;28;20435;-81
2022/10/22 12:11:35;;;;;;;10.95;4.38;;;16.80;99.90;;;;;;4980501;28;20054;-82
2022/10/22 12:14:28;;;;;;;7.13;3.97;;;16.70;99.90;;;;;;4983017;28;20371;-83
2022/10/22 12:17:04;;;;;;;14.70;4.88;;;16.50;99.90;;;;;;4990050;28;20077;-84
2022/10/22 12:19:58;;;;;;;14.90;5.47;;;16.30;99.90;;;;;;4986081;28;20133;-81
2022/10/22 12:22:28;;;;;;;12.90;4.40;;;16.20;99.90;;;;;;4974201;28;20042;-84
2022/10/22 12:24:59;;;;;;;14.88;4.88;;;16.10;99.90;;;;;;4981345;28;20047;-82
2022/10/22 12:27:49;;;;;;;13.30;4.20;;;16.10;99.90;;;;;;4988436;28;20053;-79
2022/10/22 12:30:23;;;;;;;9.40;3.90;;;16.00;99.90;;;;;;4977525;28;20141;-82
2022/10/22 12:32:56;;;;;;;12.13;3.72;;;16.00;99.90;;;;;;4977016;28;20061;-78
2022/10/22 12:35:29;;;;;;;9.17;3.17;;;16.00;99.90;;;;;;4993971;28;20050;-80
2022/10/22 12:37:57;;;;;;;11.27;3.38;;;16.10;99.90;;;;;;4995279;28;20058;-80
2022/10/22 12:40:41;;;;;;;7.55;3.28;;;16.20;99.90;;;;;;4984803;28;20113;-79
2022/10/22 12:43:14;;;;;;;6.90;2.42;;;16.40;99.90;;;;;;4995212;28;20093;-80
2022/10/22 12:45:43;;;;;;;6.72;2.35;;;16.40;99.90;;;;;;4994592;28;20042;-79
2022/10/22 12:48:22;;;;;;;11.05;2.00;;;16.50;99.90;;;;;;4977212;28;20054;-79
2022/10/22 12:50:54;;;;;;;7.95;1.67;;;16.90;99.90;;;;;;4994854;28;20128;-76
2022/10/22 12:53:23;;;;;;;6.68;2.22;;;17.70;99.90;;;;;;4994627;28;20064;-81
2022/10/22 12:55:52;;;;;;;8.32;1.80;;;18.50;99.90;;;;;;4994721;28;20486;-78